createdAt,value
2023-04-12T00:00:01.150Z,6.7513
2023-04-12T00:01:02.238Z,6.7761
2023-04-12T00:02:03.396Z,6.7781
2023-04-12T00:03:04.131Z,6.7504
2023-04-12T00:04:05.242Z,6.7568
2023-04-12T00:05:06.550Z,6.7401
2023-04-12T00:06:08.167Z,6.7266
2023-04-12T00:07:09.250Z,6.7680
2023-04-12T00:08:10.454Z,6.7502
2023-04-12T00:09:11.582Z,6.7657
2023-04-12T00:10:12.603Z,6.7527
2023-04-12T00:11:13.924Z,6.7447
2023-04-12T00:12:15.155Z,6.7556
2023-04-12T00:13:16.251Z,6.7609
2023-04-12T00:14:17.522Z,6.7803
2023-04-12T00:15:17.831Z,6.7767
2023-04-12T00:16:19.007Z,6.7844
2023-04-12T00:17:20.632Z,6.7964
2023-04-12T00:18:22.013Z,6.7959
2023-04-12T00:19:23.262Z,6.7693
2023-04-12T00:20:24.366Z,6.7590
2023-04-12T00:21:25.449Z,6.7461
2023-04-12T00:22:26.713Z,6.7613
2023-04-12T00:23:27.836Z,6.7483
2023-04-12T00:24:28.332Z,6.7340
2023-04-12T00:25:29.568Z,6.7342
2023-04-12T00:26:30.727Z,6.7453
2023-04-12T00:27:31.958Z,6.7452
2023-04-12T00:28:33.049Z,6.7749
2023-04-12T00:29:34.218Z,6.7785
2023-04-12T00:30:35.311Z,6.7807
2023-04-12T00:31:36.640Z,6.7745
2023-04-12T00:32:38.171Z,6.7662
2023-04-12T00:33:39.492Z,6.7519
2023-04-12T00:34:40.834Z,6.7538
2023-04-12T00:35:42.173Z,6.7301
2023-04-12T00:36:42.129Z,6.7218
2023-04-12T00:37:43.319Z,6.7017
2023-04-12T00:38:44.488Z,6.6267
2023-04-12T00:39:45.644Z,6.6347
2023-04-12T00:40:46.896Z,6.6432
2023-04-12T00:41:48.033Z,6.6625
2023-04-12T00:42:49.313Z,6.6625
2023-04-12T00:43:50.479Z,6.6607
2023-04-12T00:44:51.832Z,6.7016
2023-04-12T00:45:53.024Z,6.6993
2023-04-12T00:46:54.516Z,6.6492
2023-04-12T00:47:55.471Z,6.6337
2023-04-12T00:48:56.726Z,6.6178
2023-04-12T00:49:57.952Z,6.6069
2023-04-12T00:51:00.728Z,6.5824
2023-04-12T00:52:00.606Z,6.5697
2023-04-12T00:53:01.915Z,6.5554
2023-04-12T01:03:12.174Z,6.5253
2023-04-12T01:04:13.254Z,6.5187
2023-04-12T01:05:15.002Z,6.4935
2023-04-12T01:06:16.223Z,6.4761
2023-04-12T01:07:17.376Z,6.4521
2023-04-12T01:08:18.932Z,6.4612
2023-04-12T01:09:20.110Z,6.4727
2023-04-12T01:10:21.412Z,6.4750
2023-04-12T01:11:22.669Z,6.4798
2023-04-12T01:12:23.941Z,6.4646
2023-04-12T01:13:25.173Z,6.4842
2023-04-12T01:14:26.559Z,6.4875
2023-04-12T01:15:27.803Z,6.4796
2023-04-12T01:16:29.437Z,6.4635
2023-04-12T01:17:30.914Z,6.4856
2023-04-12T01:18:32.333Z,6.4828
2023-04-12T01:19:33.613Z,6.4907
2023-04-12T01:20:34.289Z,6.4915
2023-04-12T01:21:35.433Z,6.4750
2023-04-12T01:22:36.944Z,6.4847
2023-04-12T01:23:38.202Z,6.5084
2023-04-12T01:24:39.428Z,6.4990
2023-04-12T01:25:40.761Z,6.4488
2023-04-12T01:26:42.198Z,6.4265
2023-04-12T01:27:43.456Z,6.4163
2023-04-12T01:28:44.739Z,6.4261
2023-04-12T01:29:46.033Z,6.4288
2023-04-12T01:30:47.298Z,6.4308
2023-04-12T01:31:48.811Z,6.4328
2023-04-12T01:32:50.417Z,6.4076
2023-04-12T01:33:51.780Z,6.3938
2023-04-12T01:34:53.050Z,6.3835
2023-04-12T01:35:54.628Z,6.3647
2023-04-12T01:36:55.881Z,6.3994
2023-04-12T01:37:57.072Z,6.4391
2023-04-12T01:38:58.321Z,6.4176
2023-04-12T01:39:59.562Z,6.4052
2023-04-12T01:41:00.901Z,6.4119
2023-04-12T01:42:02.037Z,6.4242
2023-04-12T01:43:03.261Z,6.4494
2023-04-12T01:44:03.349Z,6.4305
2023-04-12T01:45:04.542Z,6.4223
2023-04-12T01:46:05.957Z,6.4190
2023-04-12T01:47:07.247Z,6.4115
2023-04-12T01:48:07.411Z,6.3976
2023-04-12T01:49:08.820Z,6.4068
2023-04-12T01:50:10.098Z,6.4058
2023-04-12T01:51:11.419Z,6.4116
2023-04-12T01:52:12.833Z,6.3911
2023-04-12T01:53:14.024Z,6.3961
2023-04-12T01:54:15.540Z,6.3771
2023-04-12T01:55:16.867Z,6.3711
2023-04-12T01:56:18.161Z,6.4239
2023-04-12T01:57:19.353Z,6.4276
2023-04-12T01:58:20.647Z,6.4086
2023-04-12T01:59:22.004Z,6.3906
2023-04-12T02:00:23.322Z,6.3826
2023-04-12T02:02:23.610Z,6.3906
2023-04-12T02:03:23.760Z,6.3921
2023-04-12T02:04:25.074Z,6.3947
2023-04-12T02:05:26.262Z,6.3851
2023-04-12T02:06:27.615Z,6.3729
2023-04-12T02:07:28.875Z,6.3213
2023-04-12T02:08:30.141Z,6.3185
2023-04-12T02:09:31.370Z,6.3478
2023-04-12T02:10:32.518Z,6.3547
2023-04-12T02:11:34.056Z,6.3959
2023-04-12T02:12:35.452Z,6.4445
2023-04-12T02:13:37.210Z,6.4416
2023-04-12T02:14:37.796Z,6.4316
2023-04-12T02:15:39.034Z,6.4336
2023-04-12T02:16:39.292Z,6.4190
2023-04-12T02:17:40.977Z,6.4166
2023-04-12T02:18:41.492Z,6.4132
2023-04-12T02:19:42.763Z,6.4118
2023-04-12T02:20:44.032Z,6.4043
2023-04-12T02:21:45.291Z,6.4051
2023-04-12T02:22:46.456Z,6.3965
2023-04-12T02:23:47.778Z,6.3935
2023-04-12T02:24:49.160Z,6.3693
2023-04-12T02:25:50.578Z,6.3610
2023-04-12T02:26:51.852Z,6.3504
2023-04-12T02:27:52.972Z,6.3968
2023-04-12T02:28:54.243Z,6.4124
2023-04-12T02:29:55.441Z,6.4283
2023-04-12T02:30:56.960Z,6.4297
2023-04-12T02:31:58.413Z,6.4231
2023-04-12T02:32:59.774Z,6.4081
2023-04-12T02:34:01.198Z,6.4078
2023-04-12T02:35:02.477Z,6.4161
2023-04-12T02:36:04.084Z,6.4079
2023-04-12T02:37:05.458Z,6.4015
2023-04-12T02:38:06.793Z,6.4038
2023-04-12T02:39:08.090Z,6.4021
2023-04-12T02:40:09.344Z,6.3994
2023-04-12T02:41:10.736Z,6.3885
2023-04-12T02:42:12.104Z,6.3732
2023-04-12T02:43:13.391Z,6.3822
2023-04-12T02:44:14.713Z,6.3927
2023-04-12T02:45:15.924Z,6.3854
2023-04-12T02:46:17.365Z,6.4013
2023-04-12T02:47:18.731Z,6.4063
2023-04-12T02:48:20.208Z,6.4284
2023-04-12T02:49:20.215Z,6.4369
2023-04-12T02:50:20.306Z,6.4396
2023-04-12T02:51:20.631Z,6.4367
2023-04-12T02:52:21.928Z,6.4160
2023-04-12T02:53:23.281Z,6.4137
2023-04-12T02:54:23.510Z,6.4073
2023-04-12T02:55:24.805Z,6.4095
2023-04-12T02:56:26.212Z,6.4047
2023-04-12T02:57:27.572Z,6.4121
2023-04-12T02:58:28.787Z,6.4230
2023-04-12T02:59:30.252Z,6.4127
2023-04-12T03:00:31.605Z,6.4231
2023-04-12T03:01:32.986Z,6.4316
2023-04-12T03:02:34.359Z,6.4375
2023-04-12T03:03:36.245Z,6.4323
2023-04-12T03:04:36.695Z,6.4465
2023-04-12T03:05:37.973Z,6.4319
2023-04-12T03:06:39.254Z,6.4321
2023-04-12T03:07:40.553Z,6.4525
2023-04-12T03:08:41.813Z,6.4276
2023-04-12T03:09:43.123Z,6.4257
2023-04-12T03:10:44.551Z,6.4207
2023-04-12T03:11:46.235Z,6.4170
2023-04-12T03:12:47.570Z,6.4273
2023-04-12T03:13:49.015Z,6.4211
2023-04-12T03:14:50.299Z,6.4201
2023-04-12T03:15:51.766Z,6.4311
2023-04-12T03:16:53.349Z,6.4190
2023-04-12T03:17:54.883Z,6.4256
2023-04-12T03:18:56.293Z,6.4322
2023-04-12T03:19:57.716Z,6.4586
2023-04-12T03:20:59.127Z,6.4646
2023-04-12T03:22:00.536Z,6.4515
2023-04-12T03:24:03.118Z,6.4621
2023-04-12T03:25:04.455Z,6.4787
2023-04-12T03:26:05.778Z,6.4960
2023-04-12T03:27:07.174Z,6.5032
2023-04-12T03:28:08.622Z,6.4971
2023-04-12T03:29:11.291Z,6.4953
2023-04-12T03:30:11.245Z,6.4939
2023-04-12T03:31:12.766Z,6.4922
2023-04-12T03:32:12.900Z,6.4849
2023-04-12T03:33:14.424Z,6.4971
2023-04-12T03:34:14.733Z,6.4945
2023-04-12T03:35:16.123Z,6.4945
2023-04-12T03:36:17.998Z,6.4785
2023-04-12T03:37:18.439Z,6.4726
2023-04-12T03:38:19.901Z,6.4655
2023-04-12T03:39:20.701Z,6.4659
2023-04-12T03:40:21.104Z,6.4677
2023-04-12T03:41:22.567Z,6.4597
2023-04-12T03:42:32.884Z,6.4526
2023-04-12T03:43:24.539Z,6.4676
2023-04-12T03:44:25.948Z,6.4750
2023-04-12T03:45:27.371Z,6.4685
2023-04-12T03:46:28.875Z,6.4762
2023-04-12T03:47:28.907Z,6.4942
2023-04-12T03:48:28.966Z,6.4845
2023-04-12T03:49:30.481Z,6.4618
2023-04-12T03:50:32.082Z,6.4699
2023-04-12T03:51:33.546Z,6.4520
2023-04-12T03:52:33.500Z,6.4362
2023-04-12T03:53:35.028Z,6.4563
2023-04-12T03:54:36.472Z,6.4592
2023-04-12T03:55:37.869Z,6.4417
2023-04-12T03:56:39.456Z,6.4436
2023-04-12T03:57:40.890Z,6.4769
2023-04-12T03:58:42.367Z,6.4782
2023-04-12T03:59:43.799Z,6.4916
2023-04-12T04:00:45.198Z,6.4858
2023-04-12T04:01:46.753Z,6.4830
2023-04-12T04:02:47.417Z,6.4702
2023-04-12T04:03:47.735Z,6.4697
2023-04-12T04:04:48.104Z,6.4619
2023-04-12T04:05:49.870Z,6.4719
2023-04-12T04:06:51.455Z,6.4658
2023-04-12T04:07:52.920Z,6.4547
2023-04-12T04:08:54.438Z,6.4874
2023-04-12T04:09:55.934Z,6.4995
2023-04-12T04:10:57.614Z,6.4964
2023-04-12T04:11:57.997Z,6.4863
2023-04-12T04:12:59.348Z,6.4932
2023-04-12T04:14:00.863Z,6.4815
2023-04-12T04:15:02.473Z,6.4875
2023-04-12T04:16:03.868Z,6.4937
2023-04-12T04:17:04.074Z,6.4894
2023-04-12T04:18:05.761Z,6.4888
2023-04-12T04:19:05.923Z,6.4707
2023-04-12T04:20:07.417Z,6.4971
2023-04-12T04:21:08.924Z,6.5213
2023-04-12T04:22:10.337Z,6.5307
2023-04-12T04:23:10.734Z,6.5458
2023-04-12T04:24:11.316Z,6.5550
2023-04-12T04:25:13.004Z,6.5595
2023-04-12T04:26:13.220Z,6.5415
2023-04-12T04:27:14.735Z,6.5416
2023-04-12T04:28:16.194Z,6.5480
2023-04-12T04:29:16.380Z,6.5727
2023-04-12T04:30:18.029Z,6.5635
2023-04-12T04:31:19.514Z,6.5653
2023-04-12T04:32:19.907Z,6.5714
2023-04-12T04:33:20.060Z,6.5769
2023-04-12T04:34:20.831Z,6.5607
2023-04-12T04:35:21.155Z,6.5610
2023-04-12T04:36:22.988Z,6.5475
2023-04-12T04:37:23.240Z,6.5484
2023-04-12T04:38:25.265Z,6.5262
2023-04-12T04:39:26.923Z,6.5517
2023-04-12T04:40:28.455Z,6.5464
2023-04-12T04:41:30.002Z,6.5382
2023-04-12T04:42:31.552Z,6.5502
2023-04-12T04:43:33.226Z,6.5365
2023-04-12T04:44:34.802Z,6.5371
2023-04-12T04:45:36.603Z,6.5330
2023-04-12T04:46:36.872Z,6.5508
2023-04-12T04:47:38.392Z,6.5355
2023-04-12T04:48:38.439Z,6.5325
2023-04-12T04:49:39.923Z,6.5218
2023-04-12T04:50:40.215Z,6.5237
2023-04-12T04:51:40.256Z,6.5361
2023-04-12T04:52:40.425Z,6.5560
2023-04-12T04:53:41.187Z,6.5521
2023-04-12T04:54:41.362Z,6.5424
2023-04-12T04:55:42.018Z,6.5386
2023-04-12T04:56:42.525Z,6.5529
2023-04-12T04:57:43.998Z,6.5543
2023-04-12T04:58:45.551Z,6.5558
2023-04-12T04:59:45.919Z,6.5433
2023-04-12T05:00:46.145Z,6.5200
2023-04-12T05:01:47.620Z,6.5270
2023-04-12T05:02:48.711Z,6.5037
2023-04-12T05:03:49.366Z,6.4922
2023-04-12T05:04:50.296Z,6.4939
2023-04-12T05:05:51.032Z,6.4822
2023-04-12T05:06:50.964Z,6.4799
2023-04-12T05:07:51.551Z,6.4839
2023-04-12T05:08:51.722Z,6.4716
2023-04-12T05:09:51.916Z,6.4696
2023-04-12T05:10:52.734Z,6.4820
2023-04-12T05:11:52.992Z,6.5000
2023-04-12T05:12:53.048Z,6.4846
2023-04-12T05:13:54.385Z,6.4867
2023-04-12T05:15:04.760Z,6.4986
2023-04-12T05:15:55.755Z,6.5254
2023-04-12T05:16:56.529Z,6.5419
2023-04-12T05:17:57.226Z,6.5476
2023-04-12T05:18:58.991Z,6.5554
2023-04-12T05:20:00.696Z,6.5608
2023-04-12T05:21:00.853Z,6.5599
2023-04-12T05:22:01.358Z,6.5557
2023-04-12T05:23:02.205Z,6.5451
2023-04-12T05:24:02.307Z,6.5533
2023-04-12T05:25:02.764Z,6.5765
2023-04-12T05:26:03.287Z,6.5981
2023-04-12T05:27:03.570Z,6.6006
2023-04-12T05:28:05.359Z,6.6001
2023-04-12T05:29:05.808Z,6.6027
2023-04-12T05:30:06.172Z,6.6019
2023-04-12T05:31:06.743Z,6.6136
2023-04-12T05:32:07.445Z,6.5880
2023-04-12T05:33:08.365Z,6.6161
2023-04-12T05:34:08.668Z,6.6301
2023-04-12T05:35:08.776Z,6.6197
2023-04-12T05:36:08.934Z,6.6345
2023-04-12T05:37:08.933Z,6.6392
2023-04-12T05:38:09.348Z,6.6397
2023-04-12T05:39:10.129Z,6.6340
2023-04-12T05:40:10.605Z,6.6370
2023-04-12T05:41:11.010Z,6.6374
2023-04-12T05:42:11.107Z,6.6342
2023-04-12T05:43:11.377Z,6.6385
2023-04-12T05:44:12.204Z,6.6490
2023-04-12T05:45:12.936Z,6.6633
2023-04-12T05:49:16.817Z,6.7262
2023-04-12T05:50:17.160Z,6.7430
2023-04-12T05:51:25.183Z,6.7138
2023-04-12T05:52:19.013Z,6.7259
2023-04-12T05:53:19.586Z,6.7278
2023-04-12T05:54:19.627Z,6.7430
2023-04-12T05:55:19.685Z,6.7473
2023-04-12T06:03:28.562Z,6.7971
2023-04-12T06:04:42.189Z,6.7979
2023-04-12T06:05:31.065Z,6.8046
2023-04-12T06:06:32.973Z,6.8028
2023-04-12T06:07:34.802Z,6.8029
2023-04-12T06:08:39.192Z,6.7626
2023-04-12T06:09:40.834Z,6.7818
2023-04-12T06:10:40.991Z,6.8066
2023-04-12T06:11:41.069Z,6.8218
2023-04-12T06:12:42.342Z,6.8360
2023-04-12T06:13:43.923Z,6.8339
2023-04-12T06:14:43.894Z,6.8454
2023-04-12T06:15:45.520Z,6.8741
2023-04-12T06:16:45.645Z,6.8948
2023-04-12T06:26:55.895Z,6.9795
2023-04-12T06:47:17.137Z,7.1602
2023-04-12T06:48:17.299Z,7.0948
2023-04-12T06:49:18.995Z,7.1477
2023-04-12T06:50:20.272Z,7.1776
2023-04-12T06:56:25.877Z,7.2873
2023-04-12T06:57:27.505Z,7.3669
2023-04-12T06:58:29.038Z,7.4186
2023-04-12T06:59:30.099Z,7.4638
2023-04-12T07:00:31.552Z,7.4936
2023-04-12T07:01:31.826Z,7.5151
2023-04-12T07:02:32.783Z,7.5302
2023-04-12T07:03:32.986Z,7.5631
2023-04-12T07:04:34.256Z,7.5304
2023-04-12T07:05:34.876Z,7.5600
2023-04-12T07:06:35.501Z,7.5264
2023-04-12T07:07:35.968Z,7.4797
2023-04-12T07:08:36.121Z,7.5297
2023-04-12T07:09:37.997Z,7.6052
2023-04-12T07:10:37.912Z,7.6159
2023-04-12T07:11:38.142Z,7.6013
2023-04-12T07:12:38.234Z,7.6642
2023-04-12T07:13:39.785Z,7.6665
2023-04-12T07:14:40.382Z,7.7124
2023-04-12T07:15:41.625Z,7.7896
2023-04-12T07:16:42.354Z,7.8400
2023-04-12T07:17:42.573Z,7.8508
2023-04-12T07:18:44.285Z,7.8962
2023-04-12T07:19:45.732Z,7.9566
2023-04-12T07:20:47.252Z,7.9502
2023-04-12T07:21:48.722Z,8.0166
2023-04-12T07:22:50.569Z,8.0422
2023-04-12T07:23:50.952Z,8.0099
2023-04-12T07:24:51.298Z,7.9778
2023-04-12T07:25:52.788Z,8.0242
2023-04-12T07:26:54.546Z,8.0818
2023-04-12T07:27:56.208Z,7.9784
2023-04-12T07:28:57.283Z,8.0332
2023-04-12T07:29:57.351Z,8.0453
2023-04-12T07:30:59.226Z,8.0287
2023-04-12T07:31:59.282Z,7.9477
2023-04-12T07:33:18.474Z,7.8533
2023-04-12T07:34:05.797Z,7.8256
2023-04-12T07:35:06.841Z,7.9301
2023-04-12T07:36:07.130Z,8.0340
2023-04-12T07:37:07.155Z,8.0102
2023-04-12T07:38:07.671Z,7.9633
2023-04-12T07:39:08.634Z,7.9863
2023-04-12T07:40:08.959Z,8.0920
2023-04-12T07:41:09.674Z,8.1636
2023-04-12T07:42:09.798Z,8.1461
2023-04-12T07:43:11.581Z,8.2681
2023-04-12T07:44:11.671Z,8.1337
2023-04-12T07:45:12.048Z,8.2908
2023-04-12T07:46:12.270Z,8.3233
2023-04-12T07:47:12.836Z,8.3459
2023-04-12T07:48:12.907Z,8.4327
2023-04-12T07:49:13.772Z,8.4433
2023-04-12T07:50:13.640Z,8.5366
2023-04-12T07:51:13.690Z,8.6205
2023-04-12T07:52:15.301Z,8.4305
2023-04-12T07:53:16.874Z,8.4940
2023-04-12T07:54:18.734Z,8.4572
2023-04-12T07:55:18.602Z,8.5896
2023-04-12T07:56:20.372Z,8.5201
2023-04-12T07:57:22.052Z,8.4854
2023-04-12T07:58:23.605Z,8.5751
2023-04-12T07:59:25.013Z,8.4888
2023-04-12T08:00:26.616Z,8.5307
2023-04-12T08:01:28.344Z,8.5029
2023-04-12T08:02:28.859Z,8.5354
2023-04-12T08:03:29.896Z,8.5975
2023-04-12T08:04:29.935Z,8.6577
2023-04-12T08:05:31.566Z,8.6126
2023-04-12T08:06:34.448Z,8.6193
2023-04-12T08:07:34.574Z,8.6640
2023-04-12T08:08:36.015Z,8.7948
2023-04-12T08:09:37.734Z,8.7294
2023-04-12T08:10:39.234Z,8.6846
2023-04-12T08:11:40.659Z,8.7346
2023-04-12T08:12:42.095Z,8.8130
2023-04-12T08:13:42.140Z,8.9371
2023-04-12T08:14:43.629Z,9.0892
2023-04-12T08:15:45.248Z,8.9871
2023-04-12T08:16:45.529Z,8.8857
2023-04-12T08:17:45.515Z,8.9731
2023-04-12T08:18:47.848Z,9.0784
2023-04-12T08:19:49.341Z,9.1519
2023-04-12T08:20:49.753Z,9.0788
2023-04-12T08:21:51.390Z,9.1736
2023-04-12T08:22:52.849Z,9.1805
2023-04-12T08:23:52.934Z,9.1843
2023-04-12T08:24:54.089Z,9.1711
2023-04-12T08:25:55.572Z,9.1261
2023-04-12T08:26:57.195Z,9.1703
2023-04-12T08:27:58.825Z,9.1942
2023-04-12T08:28:59.006Z,9.2461
2023-04-12T08:30:00.647Z,9.1883
2023-04-12T08:31:02.595Z,9.1969
2023-04-12T08:32:02.944Z,9.1582
2023-04-12T08:33:03.315Z,9.1355
2023-04-12T08:34:04.769Z,9.1225
2023-04-12T08:35:05.016Z,9.1184
2023-04-12T08:36:05.653Z,9.1295
2023-04-12T08:37:06.097Z,9.2076
2023-04-12T08:38:07.899Z,9.2307
2023-04-12T08:39:08.375Z,9.2243
2023-04-12T08:40:08.734Z,9.3135
2023-04-12T08:41:10.286Z,9.2841
2023-04-12T08:42:12.014Z,9.3627
2023-04-12T08:43:12.954Z,9.3886
2023-04-12T08:44:13.068Z,9.3924
2023-04-12T08:45:13.146Z,9.3214
2023-04-12T08:46:14.930Z,9.1822
2023-04-12T08:47:15.190Z,9.1253
2023-04-12T08:48:15.666Z,9.1942
2023-04-12T08:49:15.794Z,9.2740
2023-04-12T08:50:15.945Z,9.3763
2023-04-12T08:51:16.277Z,9.3729
2023-04-12T08:52:16.867Z,9.3825
2023-04-12T08:54:17.124Z,9.5047
2023-04-12T08:55:17.495Z,9.5220
2023-04-12T08:56:17.950Z,9.5791
2023-04-12T08:57:18.190Z,9.5911
2023-04-12T08:58:18.320Z,9.6813
2023-04-12T08:59:20.127Z,9.7746
2023-04-12T09:00:20.144Z,9.7826
2023-04-12T09:01:20.441Z,9.8091
2023-04-12T09:02:21.454Z,9.7384
2023-04-12T09:03:22.855Z,9.7227
2023-04-12T09:04:22.809Z,9.8099
2023-04-12T09:05:23.203Z,9.8852
2023-04-12T09:06:23.648Z,9.8625
2023-04-12T09:07:23.885Z,9.8200
2023-04-12T09:08:25.524Z,9.9313
2023-04-12T09:09:25.518Z,10.0323
2023-04-12T09:10:27.257Z,10.0595
2023-04-12T09:11:29.140Z,10.1361
2023-04-12T09:12:29.245Z,10.2129
2023-04-12T09:13:30.724Z,10.2165
2023-04-12T09:14:30.927Z,10.2760
2023-04-12T09:15:31.007Z,10.3787
2023-04-12T09:16:31.717Z,10.4305
2023-04-12T09:17:32.746Z,10.5042
2023-04-12T09:18:32.829Z,10.5331
2023-04-12T09:19:33.231Z,10.6004
2023-04-12T09:20:33.640Z,10.6345
2023-04-12T09:21:34.070Z,10.7813
2023-04-12T09:22:34.177Z,10.8724
2023-04-12T09:23:35.009Z,10.8609
2023-04-12T09:24:36.096Z,10.9610
2023-04-12T09:31:39.773Z,11.2921
2023-04-12T09:32:40.635Z,11.3161
2023-04-12T09:33:41.552Z,11.2218
2023-04-12T09:34:42.485Z,11.1682
2023-04-12T09:35:43.667Z,11.1370
2023-04-12T09:36:44.321Z,11.1688
2023-04-12T09:37:44.416Z,11.3859
2023-04-12T09:38:44.741Z,11.4192
2023-04-12T09:39:45.141Z,11.4170
2023-04-12T09:40:45.527Z,11.5915
2023-04-12T09:41:46.999Z,11.6570
2023-04-12T09:42:47.466Z,11.5030
2023-04-12T09:43:47.832Z,11.5036
2023-04-12T09:44:48.979Z,11.6992
2023-04-12T09:45:49.788Z,11.8783
2023-04-12T09:46:51.080Z,11.9148
2023-04-12T09:47:51.973Z,12.0223
2023-04-12T09:48:52.282Z,12.0236
2023-04-12T09:49:53.994Z,12.2271
2023-04-12T09:50:55.753Z,12.3220
2023-04-12T09:52:00.150Z,12.3500
2023-04-12T09:53:00.464Z,12.2584
2023-04-12T09:54:01.533Z,12.2573
2023-04-12T09:55:01.997Z,12.3372
2023-04-12T09:56:01.836Z,12.4099
2023-04-12T09:57:02.042Z,12.4353
2023-04-12T09:58:02.465Z,12.4682
2023-04-12T09:59:03.132Z,12.4358
2023-04-12T10:00:04.206Z,12.4773
2023-04-12T10:01:04.460Z,12.5208
2023-04-12T10:02:04.658Z,12.5500
2023-04-12T10:03:06.120Z,12.4609
2023-04-12T10:04:06.712Z,12.4177
2023-04-12T10:05:06.794Z,12.4264
2023-04-12T10:06:08.023Z,12.6082
2023-04-12T10:07:08.284Z,12.6181
2023-04-12T10:08:09.064Z,12.6672
2023-04-12T10:09:09.699Z,12.8026
2023-04-12T10:10:10.060Z,12.8241
2023-04-12T10:11:11.363Z,12.8814
2023-04-12T10:12:11.709Z,12.9095
2023-04-12T10:13:12.161Z,12.9450
2023-04-12T10:14:14.459Z,12.9627
2023-04-12T10:15:13.945Z,13.0000
2023-04-12T10:16:14.780Z,13.0350
2023-04-12T10:17:15.277Z,13.0721
2023-04-12T10:18:16.438Z,13.0835
2023-04-12T10:19:16.758Z,13.1327
2023-04-12T10:20:17.453Z,13.1138
2023-04-12T10:21:17.829Z,13.1402
2023-04-12T10:22:18.098Z,13.1049
2023-04-12T10:23:18.256Z,13.2016
2023-04-12T10:24:18.618Z,13.2414
2023-04-12T10:25:18.900Z,13.2903
2023-04-12T10:26:20.433Z,13.2708
2023-04-12T10:27:20.726Z,13.4143
2023-04-12T10:28:20.832Z,13.4874
2023-04-12T10:29:21.082Z,13.5177
2023-04-12T10:30:21.694Z,13.5699
2023-04-12T10:31:22.214Z,13.6486
2023-04-12T10:32:23.526Z,13.6342
2023-04-12T10:33:24.401Z,13.6719
2023-04-12T10:34:24.447Z,13.7044
2023-04-12T10:44:37.741Z,13.6090
2023-04-12T10:45:39.138Z,13.4349
2023-04-12T10:46:40.020Z,13.4544
2023-04-12T10:47:40.581Z,13.6136
2023-04-12T10:48:41.415Z,13.6168
2023-04-12T10:49:42.051Z,13.5148
2023-04-12T10:50:43.645Z,13.3097
2023-04-12T10:51:44.236Z,13.1739
2023-04-12T10:52:45.759Z,13.2404
2023-04-12T10:53:47.281Z,13.2946
2023-04-12T10:54:49.098Z,13.3436
2023-04-12T10:55:50.914Z,13.0799
2023-04-12T10:56:52.072Z,12.9139
2023-04-12T10:57:52.173Z,13.0683
2023-04-12T10:58:52.238Z,13.1274
2023-04-12T10:59:52.670Z,13.0426
2023-04-12T11:00:53.547Z,13.0820
2023-04-12T11:01:53.721Z,13.1248
2023-04-12T11:02:54.155Z,13.1213
2023-04-12T11:03:55.154Z,13.0998
2023-04-12T11:04:54.991Z,13.1137
2023-04-12T11:05:55.426Z,13.1144
2023-04-12T11:06:57.601Z,12.9785
2023-04-12T11:07:56.809Z,12.8832
2023-04-12T11:08:57.265Z,12.7745
2023-04-12T11:09:57.908Z,12.7706
2023-04-12T11:10:59.959Z,12.7016
2023-04-12T11:11:59.791Z,12.6081
2023-04-12T11:13:00.949Z,12.6876
2023-04-12T11:14:01.324Z,12.5805
2023-04-12T11:15:02.989Z,12.4673
2023-04-12T11:16:03.139Z,12.4527
2023-04-12T11:17:03.632Z,12.4662
2023-04-12T11:18:04.540Z,12.4494
2023-04-12T11:19:04.946Z,12.4955
2023-04-12T11:20:05.302Z,12.4981
2023-04-12T11:21:05.757Z,12.4474
2023-04-12T11:22:05.854Z,12.3516
2023-04-12T11:23:06.040Z,12.3582
2023-04-12T11:24:06.189Z,12.3455
2023-04-12T11:25:06.269Z,12.2474
2023-04-12T11:32:11.242Z,12.6444
2023-04-12T11:33:12.380Z,12.7291
2023-04-12T11:34:15.392Z,12.8486
2023-04-12T11:35:13.267Z,12.9389
2023-04-12T11:36:13.382Z,12.9347
2023-04-12T11:37:13.722Z,12.9796
2023-04-12T11:38:14.495Z,12.9435
2023-04-12T11:39:15.211Z,12.9927
2023-04-12T11:40:15.473Z,12.9488
2023-04-12T11:41:16.735Z,13.0098
2023-04-12T11:42:16.901Z,13.0473
2023-04-12T11:43:16.871Z,13.0072
2023-04-12T11:44:18.541Z,13.0138
2023-04-12T11:45:20.883Z,12.9992
2023-04-12T11:46:22.266Z,12.9986
2023-04-12T11:47:23.492Z,12.9142
2023-04-12T11:48:23.984Z,12.7291
2023-04-12T11:49:24.627Z,12.6506
2023-04-12T11:50:26.078Z,12.6482
2023-04-12T11:51:28.154Z,12.6062
2023-04-12T11:52:28.022Z,12.5539
2023-04-12T11:53:28.999Z,12.5621
2023-04-12T11:54:29.418Z,12.5447
2023-04-12T11:55:29.725Z,12.5324
2023-04-12T11:56:29.892Z,12.5178
2023-04-12T11:57:29.881Z,12.5091
2023-04-12T11:58:30.229Z,12.4620
2023-04-12T11:59:30.313Z,12.4817
2023-04-12T12:00:30.781Z,12.4524
2023-04-12T12:01:30.914Z,12.4181
2023-04-12T12:02:37.357Z,12.3572
2023-04-12T12:03:32.773Z,12.3732
2023-04-12T12:04:34.160Z,12.3874
2023-04-12T12:05:34.246Z,12.3946
2023-04-12T12:06:34.778Z,12.4062
2023-04-12T12:07:34.962Z,12.4747
2023-04-12T12:08:35.677Z,12.5327
2023-04-12T12:09:36.434Z,12.5954
2023-04-12T12:10:52.375Z,12.6094
2023-04-12T12:11:40.603Z,12.5706
2023-04-12T12:12:41.103Z,12.5712
2023-04-12T12:13:43.006Z,12.5791
2023-04-12T12:14:41.805Z,12.5904
2023-04-12T12:15:42.514Z,12.6142
2023-04-12T12:16:43.455Z,12.6627
2023-04-12T12:17:44.321Z,12.6856
2023-04-12T12:18:45.070Z,12.7085
2023-04-12T12:19:45.672Z,12.6838
2023-04-12T12:20:47.170Z,12.6976
2023-04-12T12:21:48.307Z,12.7285
2023-04-12T12:22:49.108Z,12.7419
2023-04-12T12:23:49.820Z,12.6825
2023-04-12T12:24:51.133Z,12.6547
2023-04-12T12:25:55.874Z,12.6715
2023-04-12T12:26:53.057Z,12.6173
2023-04-12T12:27:54.032Z,12.6196
2023-04-12T12:28:55.354Z,12.6436
2023-04-12T12:29:55.889Z,12.6960
2023-04-12T12:30:57.500Z,12.7631
2023-04-12T12:31:57.901Z,12.7648
2023-04-12T12:32:58.882Z,12.7953
2023-04-12T12:34:00.577Z,12.7623
2023-04-12T12:35:01.511Z,12.7280
2023-04-12T12:36:02.196Z,12.7266
2023-04-12T12:37:02.970Z,12.7103
2023-04-12T12:38:03.494Z,12.6872
2023-04-12T12:39:04.232Z,12.6146
2023-04-12T12:40:04.822Z,12.5922
2023-04-12T12:41:05.631Z,12.5554
2023-04-12T12:42:06.546Z,12.4792
2023-04-12T12:43:07.188Z,12.3352
2023-04-12T12:44:07.592Z,12.2033
2023-04-12T12:45:09.313Z,12.0550
2023-04-12T12:46:09.651Z,12.0238
2023-04-12T12:47:14.618Z,12.0143
2023-04-12T12:48:11.680Z,11.9569
2023-04-12T12:49:12.544Z,11.9108
2023-04-12T12:50:13.079Z,11.9184
2023-04-12T12:51:13.640Z,11.8644
2023-04-12T12:52:14.688Z,11.8417
2023-04-12T12:53:15.657Z,11.8188
2023-04-12T12:54:25.136Z,11.7930
2023-04-12T12:55:16.656Z,11.7296
2023-04-12T12:56:17.182Z,11.6716
2023-04-12T12:57:17.689Z,11.6127
2023-04-12T12:58:18.344Z,11.4792
2023-04-12T12:59:19.517Z,11.4231
2023-04-12T13:00:19.776Z,11.3164
2023-04-12T13:01:20.553Z,11.2585
2023-04-12T13:02:21.940Z,11.2509
2023-04-12T13:03:22.408Z,11.2857
2023-04-12T13:04:23.245Z,11.3074
2023-04-12T13:05:23.666Z,11.3223
2023-04-12T13:06:24.843Z,11.3153
2023-04-12T13:07:25.587Z,11.3459
2023-04-12T13:08:26.088Z,11.3523
2023-04-12T13:09:26.723Z,11.3648
2023-04-12T13:10:27.419Z,11.3884
2023-04-12T13:11:28.049Z,11.3545
2023-04-12T13:12:28.673Z,11.2977
2023-04-12T13:13:29.465Z,11.2474
2023-04-12T13:14:30.101Z,11.1128
2023-04-12T13:15:30.385Z,11.0315
2023-04-12T13:16:31.119Z,11.0243
2023-04-12T13:17:32.509Z,10.9986
2023-04-12T13:18:33.173Z,10.9889
2023-04-12T13:19:34.391Z,10.9430
2023-04-12T13:20:35.059Z,10.9495
2023-04-12T13:21:35.879Z,11.0364
2023-04-12T13:22:36.345Z,10.9995
2023-04-12T13:23:37.087Z,11.0428
2023-04-12T13:24:38.070Z,11.0716
2023-04-12T13:25:38.714Z,11.1562
2023-04-12T13:26:39.445Z,11.2040
2023-04-12T13:27:40.244Z,11.2258
2023-04-12T13:28:40.752Z,11.2687
2023-04-12T13:29:41.538Z,11.2271
2023-04-12T13:30:42.234Z,11.1918
2023-04-12T13:31:43.247Z,11.1849
2023-04-12T13:32:44.403Z,11.1846
2023-04-12T13:33:45.792Z,11.3001
2023-04-12T13:34:46.496Z,11.3485
2023-04-12T13:35:47.297Z,11.3659
2023-04-12T13:36:47.990Z,11.4057
2023-04-12T13:37:48.669Z,11.4326
2023-04-12T13:38:49.410Z,11.4891
2023-04-12T13:39:49.668Z,11.5323
2023-04-12T13:40:50.231Z,11.5864
2023-04-12T13:41:50.843Z,11.5742
2023-04-12T13:42:51.575Z,11.6230
2023-04-12T13:43:52.197Z,11.6323
2023-04-12T13:44:52.484Z,11.6821
2023-04-12T13:45:53.025Z,11.6886
2023-04-12T13:46:54.035Z,11.6513
2023-04-12T13:47:55.337Z,11.6637
2023-04-12T13:48:56.792Z,11.6626